createdAt,value
2017-03-23T00:00:45.451Z,92.50
2017-03-23T00:01:43.780Z,92.40
2017-03-23T00:02:42.073Z,92.40
2017-03-23T00:03:40.329Z,92.40
2017-03-23T00:04:38.656Z,92.20
2017-03-23T00:05:36.964Z,92.10
2017-03-23T00:06:35.285Z,92.20
2017-03-23T00:07:33.541Z,92.20
2017-03-23T00:08:32.529Z,92.30
2017-03-23T00:09:30.801Z,92.40
2017-03-23T00:10:29.073Z,92.40
2017-03-23T00:11:27.309Z,92.40
2017-03-23T00:12:25.592Z,92.30
2017-03-23T00:13:24.561Z,92.30
2017-03-23T00:14:22.776Z,92.30
2017-03-23T00:15:21.825Z,92.30
2017-03-23T00:16:20.104Z,92.30
2017-03-23T00:17:18.358Z,92.30
2017-03-23T00:18:16.653Z,92.40
2017-03-23T00:19:14.927Z,92.40
2017-03-23T00:20:13.181Z,92.50
2017-03-23T00:21:11.458Z,92.50
2017-03-23T00:22:09.761Z,92.60
2017-03-23T00:23:08.032Z,92.60
2017-03-23T00:24:06.313Z,92.60
2017-03-23T00:25:05.351Z,92.70
2017-03-23T00:26:04.340Z,92.60
2017-03-23T00:27:02.626Z,92.50
2017-03-23T00:28:00.873Z,92.50
2017-03-23T00:28:59.124Z,92.60
2017-03-23T00:29:57.377Z,92.60
2017-03-23T00:30:55.636Z,92.60
2017-03-23T00:31:53.882Z,92.70
2017-03-23T00:32:52.854Z,92.70
2017-03-23T00:33:51.125Z,92.70
2017-03-23T00:34:49.373Z,92.70
2017-03-23T00:35:47.618Z,92.70
2017-03-23T00:36:45.871Z,92.70
2017-03-23T00:37:44.105Z,92.70
2017-03-23T00:38:42.345Z,92.70
2017-03-23T00:39:40.605Z,92.80
2017-03-23T00:40:38.881Z,92.80
2017-03-23T00:41:37.865Z,92.70
2017-03-23T00:42:36.100Z,92.70
2017-03-23T00:43:34.336Z,92.70
2017-03-23T00:44:32.569Z,92.60
2017-03-23T00:45:30.840Z,92.60
2017-03-23T00:46:29.097Z,92.60
2017-03-23T00:47:27.348Z,92.60
2017-03-23T00:48:25.593Z,92.60
2017-03-23T00:49:23.833Z,92.60
2017-03-23T00:50:22.072Z,92.60
2017-03-23T00:51:20.337Z,92.60
2017-03-23T00:52:18.609Z,92.70
2017-03-23T00:53:16.879Z,92.70
2017-03-23T00:54:15.129Z,92.80
2017-03-23T00:55:13.371Z,92.70
2017-03-23T00:56:11.620Z,92.90
2017-03-23T00:57:09.934Z,92.90
2017-03-23T00:58:08.372Z,92.90
2017-03-23T00:59:06.620Z,92.90
2017-03-23T01:00:04.957Z,92.80
2017-03-23T01:01:03.230Z,92.90
2017-03-23T01:02:01.529Z,92.80
2017-03-23T01:02:59.841Z,92.80
2017-03-23T01:03:58.081Z,92.90
2017-03-23T01:04:56.481Z,92.90
2017-03-23T01:06:00.512Z,92.90
2017-03-23T01:07:04.565Z,92.80
2017-03-23T01:08:08.569Z,92.80
2017-03-23T01:09:12.524Z,92.80
2017-03-23T01:10:16.428Z,92.90
2017-03-23T01:11:20.450Z,92.90
2017-03-23T01:12:24.381Z,92.90
2017-03-23T01:13:28.485Z,92.90
2017-03-23T01:14:32.401Z,93.00
2017-03-23T01:15:36.348Z,92.90
2017-03-23T01:16:40.277Z,93.00
2017-03-23T01:17:44.320Z,93.10
2017-03-23T01:18:42.627Z,93.10
2017-03-23T01:19:40.853Z,93.10
2017-03-23T01:20:39.108Z,93.10
2017-03-23T01:21:37.402Z,93.10
2017-03-23T01:22:35.625Z,93.10
2017-03-23T01:23:33.916Z,93.10
2017-03-23T01:24:32.180Z,93.00
2017-03-23T01:25:30.401Z,93.10
2017-03-23T01:26:28.668Z,93.20
2017-03-23T01:27:27.653Z,93.20
2017-03-23T01:28:26.617Z,93.20
2017-03-23T01:29:25.616Z,93.30
2017-03-23T01:30:23.885Z,93.30
2017-03-23T01:31:22.141Z,93.30
2017-03-23T01:32:21.129Z,93.30
2017-03-23T01:33:19.389Z,93.30
2017-03-23T01:34:17.693Z,93.40
2017-03-23T01:35:15.934Z,93.40
2017-03-23T01:36:14.229Z,93.40
2017-03-23T01:37:12.465Z,93.40
2017-03-23T01:38:11.432Z,93.40
2017-03-23T01:39:10.470Z,93.40
2017-03-23T01:40:08.717Z,93.40
2017-03-23T01:41:06.983Z,93.40
2017-03-23T01:42:05.247Z,93.40
2017-03-23T01:43:03.505Z,93.40
2017-03-23T01:44:01.737Z,93.40
2017-03-23T01:44:59.981Z,93.40
2017-03-23T01:45:58.221Z,93.40
2017-03-23T01:46:56.485Z,93.40
2017-03-23T01:47:54.755Z,93.40
2017-03-23T01:48:53.005Z,93.40
2017-03-23T01:49:51.297Z,93.40
2017-03-23T01:50:49.549Z,93.50
2017-03-23T01:51:47.829Z,93.50
2017-03-23T01:52:46.062Z,93.50
2017-03-23T01:53:44.337Z,93.50
2017-03-23T01:54:42.594Z,93.60
2017-03-23T01:55:40.837Z,93.50
2017-03-23T01:56:39.841Z,93.60
2017-03-23T01:57:38.074Z,93.60
2017-03-23T01:58:36.361Z,93.60
2017-03-23T01:59:34.674Z,93.60
2017-03-23T02:00:32.941Z,93.50
2017-03-23T02:01:31.216Z,93.50
2017-03-23T02:02:30.228Z,93.50
2017-03-23T02:03:29.213Z,93.50
2017-03-23T02:04:27.508Z,93.60
2017-03-23T02:05:25.788Z,93.60
2017-03-23T02:06:24.061Z,93.60
2017-03-23T02:07:22.338Z,93.60
2017-03-23T02:08:20.566Z,93.60
2017-03-23T02:09:18.839Z,93.60
2017-03-23T02:10:17.132Z,93.70
2017-03-23T02:11:15.432Z,93.60
2017-03-23T02:12:13.648Z,93.60
2017-03-23T02:13:11.881Z,93.60
2017-03-23T02:14:10.905Z,93.60
2017-03-23T02:15:09.216Z,93.90
2017-03-23T02:16:07.541Z,93.50
2017-03-23T02:17:05.849Z,93.20
2017-03-23T02:18:04.141Z,93.00
2017-03-23T02:19:03.146Z,92.80
2017-03-23T02:20:01.413Z,92.50
2017-03-23T02:20:59.656Z,92.30
2017-03-23T02:21:57.892Z,92.10
2017-03-23T02:22:56.185Z,92.10
2017-03-23T02:23:55.181Z,92.10
2017-03-23T02:24:53.404Z,92.20
2017-03-23T02:25:51.680Z,92.10
2017-03-23T02:26:49.910Z,91.70
2017-03-23T02:27:48.149Z,91.50
2017-03-23T02:28:46.396Z,91.50
2017-03-23T02:29:45.409Z,91.40
2017-03-23T02:30:43.651Z,91.30
2017-03-23T02:31:41.889Z,91.30
2017-03-23T02:32:40.105Z,91.40
2017-03-23T02:33:38.346Z,91.30
2017-03-23T02:34:37.356Z,91.20
2017-03-23T02:35:35.605Z,91.20
2017-03-23T02:36:33.849Z,91.20
2017-03-23T02:37:32.049Z,91.10
2017-03-23T02:38:30.281Z,91.10
2017-03-23T02:39:28.484Z,91.10
2017-03-23T02:40:26.729Z,91.20
2017-03-23T02:41:24.953Z,91.50
2017-03-23T02:42:23.205Z,91.40
2017-03-23T02:43:21.445Z,91.10
2017-03-23T02:44:19.668Z,91.10
2017-03-23T02:45:17.880Z,91.10
2017-03-23T02:46:16.120Z,91.10
2017-03-23T02:47:14.309Z,91.00
2017-03-23T02:48:12.577Z,91.00
2017-03-23T02:49:10.812Z,91.00
2017-03-23T02:50:09.033Z,91.00
2017-03-23T02:51:07.244Z,91.10
2017-03-23T02:52:05.448Z,91.20
2017-03-23T02:53:03.704Z,91.20
2017-03-23T02:54:01.941Z,91.10
2017-03-23T02:55:00.156Z,91.10
2017-03-23T02:55:58.360Z,91.00
2017-03-23T02:56:56.552Z,91.10
2017-03-23T02:57:54.791Z,91.10
2017-03-23T02:58:53.765Z,91.20
2017-03-23T02:59:51.964Z,91.20
2017-03-23T03:00:50.176Z,91.30
2017-03-23T03:01:48.388Z,91.20
2017-03-23T03:02:46.641Z,91.20
2017-03-23T03:03:44.860Z,91.20
2017-03-23T03:04:43.841Z,91.30
2017-03-23T03:05:42.093Z,91.20
2017-03-23T03:06:40.376Z,91.10
2017-03-23T03:07:38.625Z,91.10
2017-03-23T03:08:36.901Z,91.10
2017-03-23T03:09:35.193Z,91.10
2017-03-23T03:10:33.646Z,91.00
2017-03-23T03:11:31.908Z,91.10
2017-03-23T03:12:30.113Z,91.10
2017-03-23T03:13:29.072Z,91.10
2017-03-23T03:14:27.297Z,91.10
2017-03-23T03:15:25.525Z,91.20
2017-03-23T03:16:24.493Z,91.20
2017-03-23T03:17:22.813Z,91.20
2017-03-23T03:18:21.056Z,91.20
2017-03-23T03:19:19.310Z,91.20
2017-03-23T03:20:17.563Z,91.20
2017-03-23T03:21:15.813Z,91.20
2017-03-23T03:22:14.117Z,91.20
2017-03-23T03:23:12.354Z,91.20
2017-03-23T03:24:10.594Z,91.20
2017-03-23T03:25:09.585Z,91.30
2017-03-23T03:27:07.392Z,91.30
2017-03-23T03:28:05.621Z,91.20
2017-03-23T03:29:03.892Z,91.20
2017-03-23T03:30:02.162Z,91.30
2017-03-23T03:31:00.417Z,91.20
2017-03-23T03:31:58.654Z,91.30
2017-03-23T03:32:56.941Z,91.30
2017-03-23T03:33:55.177Z,91.30
2017-03-23T03:34:56.040Z,91.30
2017-03-23T03:35:54.276Z,91.30
2017-03-23T03:36:52.513Z,91.30
2017-03-23T03:37:51.492Z,91.30
2017-03-23T03:38:49.746Z,91.30
2017-03-23T03:39:48.013Z,91.30
2017-03-23T03:40:47.005Z,91.30
2017-03-23T03:41:45.238Z,91.30
2017-03-23T03:42:43.476Z,91.30
2017-03-23T03:43:41.712Z,91.30
2017-03-23T03:44:39.972Z,91.30
2017-03-23T03:45:38.940Z,91.30
2017-03-23T03:46:37.179Z,91.30
2017-03-23T03:47:35.401Z,91.30
2017-03-23T03:48:33.628Z,91.30
2017-03-23T03:49:31.864Z,91.30
2017-03-23T03:50:30.321Z,91.30
2017-03-23T03:51:28.545Z,91.30
2017-03-23T03:52:27.521Z,91.40
2017-03-23T03:53:25.760Z,91.40
2017-03-23T03:54:24.005Z,91.60
2017-03-23T03:55:22.248Z,91.40
2017-03-23T03:56:20.552Z,91.60
2017-03-23T03:57:18.819Z,91.40
2017-03-23T03:58:17.057Z,91.40
2017-03-23T03:59:15.282Z,91.30
2017-03-23T04:00:14.277Z,91.30
2017-03-23T04:01:12.561Z,91.30
2017-03-23T04:02:10.817Z,91.40
2017-03-23T04:03:09.067Z,91.40
2017-03-23T04:04:08.041Z,91.40
2017-03-23T04:05:06.284Z,91.40
2017-03-23T04:06:04.545Z,91.30
2017-03-23T04:07:02.797Z,91.30
2017-03-23T04:08:01.052Z,91.30
2017-03-23T04:08:59.288Z,91.30
2017-03-23T04:09:57.537Z,91.30
2017-03-23T04:10:55.781Z,91.30
2017-03-23T04:11:54.076Z,91.30
2017-03-23T04:12:52.333Z,91.30
2017-03-23T04:13:50.593Z,91.40
2017-03-23T04:14:48.835Z,91.50
2017-03-23T04:15:47.081Z,91.70
2017-03-23T04:16:45.392Z,91.50
2017-03-23T04:17:43.621Z,91.50
2017-03-23T04:18:41.922Z,91.40
2017-03-23T04:19:40.375Z,91.40
2017-03-23T04:20:38.870Z,91.40
2017-03-23T04:21:37.136Z,91.40
2017-03-23T04:22:35.376Z,91.40
2017-03-23T04:23:33.689Z,91.50
2017-03-23T04:24:31.929Z,91.50
2017-03-23T04:25:30.220Z,91.40
2017-03-23T04:26:28.457Z,91.50
2017-03-23T04:27:26.694Z,91.50
2017-03-23T04:28:24.959Z,91.50
2017-03-23T04:29:23.216Z,91.50
2017-03-23T04:30:21.480Z,91.50
2017-03-23T04:31:19.762Z,91.50
2017-03-23T04:32:17.996Z,91.50
2017-03-23T04:33:16.216Z,91.50
2017-03-23T04:34:14.473Z,91.50
2017-03-23T04:35:12.719Z,91.50
2017-03-23T04:36:10.948Z,91.50
2017-03-23T04:37:09.228Z,91.50
2017-03-23T04:38:07.480Z,91.50
2017-03-23T04:39:05.721Z,91.50
2017-03-23T04:40:03.973Z,91.50
2017-03-23T04:41:02.228Z,91.50
2017-03-23T04:42:00.501Z,91.50
2017-03-23T04:42:58.760Z,91.50
2017-03-23T04:43:56.973Z,91.50
2017-03-23T04:44:55.228Z,91.50
2017-03-23T04:45:53.448Z,91.50
2017-03-23T04:46:51.673Z,91.50
2017-03-23T04:47:49.940Z,91.50
2017-03-23T04:48:48.169Z,91.50
2017-03-23T04:49:46.384Z,91.40
2017-03-23T04:50:46.289Z,91.40
2017-03-23T04:51:44.529Z,91.40
2017-03-23T04:52:42.754Z,91.50
2017-03-23T04:53:40.992Z,91.50
2017-03-23T04:54:39.249Z,91.50
2017-03-23T04:55:37.465Z,91.50
2017-03-23T04:56:35.691Z,91.50
2017-03-23T04:57:33.931Z,91.50
2017-03-23T04:58:32.901Z,91.50
2017-03-23T04:59:31.136Z,91.50
2017-03-23T05:00:29.372Z,91.50
2017-03-23T14:53:55.253Z,41.70
2017-03-23T14:54:53.974Z,41.60
2017-03-23T14:55:53.191Z,41.90
2017-03-23T14:56:51.456Z,42.10
2017-03-23T14:57:50.469Z,42.60
2017-03-23T14:58:48.717Z,42.80
2017-03-23T14:59:46.983Z,43.40
2017-03-23T15:00:46.009Z,43.60
2017-03-23T15:01:44.248Z,44.10
2017-03-23T15:02:43.357Z,43.10
2017-03-23T15:03:41.597Z,43.50
2017-03-23T15:04:40.571Z,44.30
2017-03-23T15:05:39.552Z,44.90
2017-03-23T15:06:37.821Z,44.40
2017-03-23T15:07:36.812Z,44.70
2017-03-23T15:08:35.786Z,45.00
2017-03-23T15:09:34.021Z,45.80
2017-03-23T15:10:32.775Z,46.20
2017-03-23T15:11:31.031Z,46.00
2017-03-23T15:12:29.448Z,46.50
2017-03-23T15:13:28.153Z,46.70
2017-03-23T15:14:26.414Z,47.10
2017-03-23T15:15:24.724Z,46.10
2017-03-23T15:16:22.974Z,45.60
2017-03-23T15:17:21.285Z,46.20
2017-03-23T15:18:19.813Z,46.50
2017-03-23T15:19:18.252Z,46.50
2017-03-23T15:20:17.264Z,45.90
2017-03-23T15:21:15.593Z,45.80
2017-03-23T15:22:13.885Z,45.90
2017-03-23T15:23:12.144Z,45.40
2017-03-23T15:24:10.372Z,45.70
2017-03-23T15:25:08.731Z,45.60
2017-03-23T15:26:06.965Z,45.70
2017-03-23T15:27:05.235Z,45.40
2017-03-23T15:28:03.696Z,45.90
2017-03-23T15:29:01.961Z,45.70
2017-03-23T15:30:00.381Z,44.70
2017-03-23T15:30:58.604Z,44.90
2017-03-23T15:31:56.848Z,46.20
2017-03-23T15:32:55.832Z,46.20
2017-03-23T15:33:54.869Z,46.60
2017-03-23T15:34:53.097Z,46.70
2017-03-23T15:35:51.349Z,47.10
2017-03-23T15:36:49.654Z,48.00
2017-03-23T15:37:47.893Z,47.30
2017-03-23T15:38:46.121Z,47.50
2017-03-23T15:39:44.341Z,47.20
2017-03-23T15:40:42.589Z,46.60
2017-03-23T15:41:40.862Z,46.80
2017-03-23T15:42:39.097Z,46.50
2017-03-23T15:43:38.141Z,46.30
2017-03-23T15:44:36.386Z,46.40
2017-03-23T15:45:34.605Z,46.80
2017-03-23T15:46:33.645Z,47.20
2017-03-23T15:47:31.873Z,47.60
2017-03-23T15:48:30.141Z,47.70
2017-03-23T15:49:28.491Z,48.00
2017-03-23T15:50:26.732Z,47.80
2017-03-23T15:51:25.001Z,48.20
2017-03-23T15:52:23.342Z,48.00
2017-03-23T15:53:21.597Z,47.80
2017-03-23T15:54:19.931Z,47.50
2017-03-23T15:55:18.925Z,46.90
2017-03-23T15:56:17.905Z,46.90
2017-03-23T15:57:16.137Z,47.10
2017-03-23T15:58:14.404Z,47.20
2017-03-23T15:59:13.365Z,47.00
2017-03-23T16:00:11.685Z,46.70
2017-03-23T16:01:09.948Z,46.50
2017-03-23T16:02:08.165Z,46.30
2017-03-23T16:03:06.508Z,46.10
2017-03-23T16:04:04.758Z,45.50
2017-03-23T16:05:03.736Z,45.00
2017-03-23T16:06:01.994Z,44.90
2017-03-23T16:07:00.244Z,44.80
2017-03-23T16:07:58.627Z,44.60
2017-03-23T16:08:56.884Z,44.30
2017-03-23T16:09:55.868Z,44.60
2017-03-23T16:10:54.103Z,43.80
2017-03-23T16:11:52.805Z,43.50
2017-03-23T16:12:51.102Z,43.70
2017-03-23T16:13:49.386Z,43.50
2017-03-23T16:14:47.620Z,43.50
2017-03-23T16:15:45.870Z,43.30
2017-03-23T16:16:44.084Z,43.40
2017-03-23T16:17:42.311Z,43.50
2017-03-23T16:18:40.583Z,43.90
2017-03-23T16:19:38.837Z,44.10
2017-03-23T16:20:37.364Z,44.30
2017-03-23T16:21:35.613Z,44.80
2017-03-23T16:22:34.193Z,45.00
2017-03-23T16:23:32.461Z,44.80
2017-03-23T16:24:30.776Z,45.50
2017-03-23T16:25:30.240Z,45.50
2017-03-23T16:26:28.480Z,46.00
2017-03-23T16:27:26.809Z,46.50
2017-03-23T16:28:25.045Z,46.90
2017-03-23T16:29:23.811Z,47.20
2017-03-23T16:30:22.041Z,47.70
2017-03-23T16:31:20.478Z,48.20
2017-03-23T16:32:18.693Z,48.70
2017-03-23T16:33:17.145Z,49.20
2017-03-23T16:34:15.429Z,49.70
2017-03-23T16:35:13.801Z,49.80
2017-03-23T16:36:12.158Z,49.80
2017-03-23T16:37:10.412Z,50.20
2017-03-23T16:38:08.648Z,50.40
2017-03-23T16:39:06.882Z,50.30
2017-03-23T16:40:05.366Z,50.60
2017-03-23T16:41:03.672Z,50.50
2017-03-23T16:42:02.669Z,50.50
2017-03-23T16:43:01.421Z,50.70
2017-03-23T16:43:59.765Z,51.10
2017-03-23T16:44:58.183Z,51.20
2017-03-23T16:45:56.461Z,51.20
2017-03-23T16:46:54.677Z,51.20
2017-03-23T16:47:53.174Z,51.20
2017-03-23T16:48:51.454Z,51.40
2017-03-23T16:49:49.925Z,51.80
2017-03-23T16:50:48.908Z,52.10
2017-03-23T16:51:47.864Z,52.40
2017-03-23T16:52:49.393Z,52.60
2017-03-23T16:53:47.656Z,53.10
2017-03-23T16:54:45.925Z,53.40
2017-03-23T16:55:44.173Z,53.60
2017-03-23T16:56:42.400Z,53.90
2017-03-23T16:57:40.838Z,53.90
2017-03-23T16:58:39.149Z,54.20
2017-03-23T16:59:37.409Z,54.40
2017-03-23T17:00:35.889Z,54.70
2017-03-23T17:01:34.163Z,54.60
2017-03-23T17:02:32.426Z,54.80
2017-03-23T17:03:30.674Z,55.00
2017-03-23T17:04:28.941Z,54.80
2017-03-23T17:05:27.955Z,55.00
2017-03-23T17:06:27.846Z,55.10
2017-03-23T17:07:26.366Z,55.20
2017-03-23T17:08:24.586Z,55.50
2017-03-23T17:09:23.061Z,55.80
2017-03-23T17:10:21.295Z,56.10
2017-03-23T17:11:20.256Z,56.40
2017-03-23T17:12:18.554Z,56.70
2017-03-23T17:13:17.046Z,57.40
2017-03-23T17:14:16.053Z,57.00
2017-03-23T17:15:14.281Z,57.10
2017-03-23T17:16:12.529Z,57.30
2017-03-23T17:17:10.783Z,57.40
2017-03-23T17:18:09.031Z,57.60
2017-03-23T17:19:07.249Z,57.80
2017-03-23T17:20:05.493Z,58.00
2017-03-23T17:21:03.723Z,58.20
2017-03-23T17:22:01.941Z,58.40
2017-03-23T17:23:00.161Z,59.30
2017-03-23T17:23:58.375Z,58.90
2017-03-23T17:24:56.599Z,59.30
2017-03-23T17:25:54.857Z,59.40
2017-03-23T17:26:53.517Z,59.60
2017-03-23T17:27:51.745Z,59.60
2017-03-23T17:28:49.989Z,59.80
2017-03-23T17:29:48.241Z,60.60
2017-03-23T17:30:46.503Z,60.30
2017-03-23T17:31:44.790Z,60.40
2017-03-23T17:32:43.758Z,60.70
2017-03-23T17:33:42.005Z,60.80
2017-03-23T17:34:40.242Z,61.00
2017-03-23T17:35:38.482Z,61.00
2017-03-23T17:36:36.711Z,61.10
2017-03-23T17:37:34.966Z,61.30
2017-03-23T17:38:33.182Z,61.50
2017-03-23T17:39:31.398Z,61.60
2017-03-23T17:40:29.636Z,61.70
2017-03-23T17:41:27.869Z,61.80
2017-03-23T17:42:26.117Z,61.80
2017-03-23T17:43:24.346Z,62.00
2017-03-23T17:44:22.622Z,62.00
2017-03-23T17:45:20.864Z,62.30
2017-03-23T17:46:19.089Z,62.60
2017-03-23T17:47:17.313Z,62.70
2017-03-23T17:48:15.553Z,62.70
2017-03-23T17:49:14.434Z,63.00
2017-03-23T17:50:12.665Z,63.10
2017-03-23T17:51:11.653Z,63.20
2017-03-23T17:52:09.904Z,63.30
2017-03-23T17:53:08.134Z,63.50
2017-03-23T17:54:06.416Z,63.50
2017-03-23T17:55:04.629Z,63.60
2017-03-23T17:56:02.867Z,63.70
2017-03-23T17:57:01.122Z,63.80
2017-03-23T17:57:59.372Z,63.80
2017-03-23T17:58:57.602Z,64.00
2017-03-23T17:59:55.831Z,64.20
2017-03-23T18:00:54.084Z,64.30
2017-03-23T18:01:52.355Z,64.40
2017-03-23T18:02:50.589Z,64.60
2017-03-23T18:03:48.794Z,64.70
2017-03-23T18:04:47.021Z,64.90
2017-03-23T18:05:45.257Z,65.10
2017-03-23T18:06:43.486Z,65.20
2017-03-23T18:07:42.572Z,65.30
2017-03-23T18:08:40.835Z,65.30
2017-03-23T18:09:40.653Z,65.40
2017-03-23T18:10:39.196Z,65.50
2017-03-23T18:11:37.840Z,65.60
2017-03-23T18:12:36.197Z,65.70
2017-03-23T18:13:34.449Z,65.80
2017-03-23T18:14:32.677Z,65.90
2017-03-23T18:15:31.188Z,65.90
2017-03-23T18:16:29.449Z,66.80
2017-03-23T18:17:27.853Z,66.50
2017-03-23T18:18:26.119Z,66.30
2017-03-23T18:19:24.349Z,66.60
2017-03-23T18:20:23.645Z,66.70
2017-03-23T18:21:21.873Z,67.30
2017-03-23T18:22:20.110Z,66.70
2017-03-23T18:23:18.394Z,66.80
2017-03-23T18:24:16.646Z,67.00
2017-03-23T18:25:14.898Z,67.00
2017-03-23T18:26:13.105Z,67.10
2017-03-23T18:27:11.346Z,67.20
2017-03-23T18:28:09.585Z,67.30
2017-03-23T18:29:07.838Z,67.50
2017-03-23T18:30:06.114Z,67.80
2017-03-23T18:31:04.324Z,67.90
2017-03-23T18:32:02.553Z,67.80
2017-03-23T18:33:00.802Z,68.00
2017-03-23T18:33:59.035Z,68.10
2017-03-23T18:34:57.266Z,68.00
2017-03-23T18:35:55.521Z,67.90
2017-03-23T18:36:53.766Z,67.80
2017-03-23T18:37:52.017Z,67.80
2017-03-23T18:38:50.248Z,67.80
2017-03-23T18:39:48.521Z,67.90
2017-03-23T18:40:46.761Z,68.00
2017-03-23T18:41:45.744Z,68.30
2017-03-23T18:42:43.977Z,68.10
2017-03-23T18:43:42.234Z,68.00
2017-03-23T18:44:40.459Z,68.00
2017-03-23T18:45:38.676Z,68.00
2017-03-23T18:46:36.921Z,68.00
2017-03-23T18:47:35.932Z,67.90
2017-03-23T18:48:34.177Z,68.00
2017-03-23T18:49:32.416Z,68.00
2017-03-23T18:50:30.646Z,68.30
2017-03-23T18:51:28.898Z,68.30
2017-03-23T18:52:27.169Z,68.20
2017-03-23T18:53:25.414Z,68.30
2017-03-23T18:54:23.638Z,68.20
2017-03-23T18:55:21.858Z,68.10
2017-03-23T18:56:20.098Z,68.00
2017-03-23T18:57:19.069Z,68.10
2017-03-23T18:58:18.102Z,68.10
2017-03-23T18:59:16.321Z,68.20
2017-03-23T19:00:14.646Z,68.30
2017-03-23T19:01:12.941Z,68.20
2017-03-23T19:02:11.185Z,68.20
2017-03-23T19:03:09.462Z,68.30
2017-03-23T19:04:07.753Z,68.30
2017-03-23T19:05:06.077Z,68.40
2017-03-23T19:06:04.309Z,68.40
2017-03-23T19:07:02.549Z,68.50
2017-03-23T19:08:01.046Z,68.70
2017-03-23T19:08:59.294Z,68.70
2017-03-23T19:09:59.087Z,68.80
2017-03-23T19:10:57.313Z,69.00
2017-03-23T19:11:55.560Z,69.00
2017-03-23T19:12:53.809Z,68.90
2017-03-23T19:13:52.062Z,68.90
2017-03-23T19:14:50.348Z,69.00
2017-03-23T19:15:48.601Z,69.10
2017-03-23T19:16:47.562Z,69.10
2017-03-23T19:17:45.837Z,69.00
2017-03-23T19:18:44.825Z,69.20
2017-03-23T19:19:43.078Z,69.20
2017-03-23T19:20:41.409Z,69.10
2017-03-23T19:21:39.657Z,69.30
2017-03-23T19:22:37.907Z,69.30
2017-03-23T19:23:36.150Z,69.30
2017-03-23T19:24:34.373Z,69.30
2017-03-23T19:25:33.361Z,69.30
2017-03-23T19:26:31.597Z,69.30
2017-03-23T19:27:29.853Z,69.40
2017-03-23T19:28:28.391Z,69.60
2017-03-23T19:29:26.662Z,69.80
2017-03-23T19:30:25.662Z,69.60
2017-03-23T19:31:23.910Z,69.60
2017-03-23T19:32:22.174Z,69.50
2017-03-23T19:33:21.183Z,69.60
2017-03-23T19:34:19.469Z,69.60
2017-03-23T19:35:17.729Z,69.70
2017-03-23T19:36:15.953Z,69.70
2017-03-23T19:37:14.953Z,69.80
2017-03-23T19:38:13.207Z,69.70
2017-03-23T19:39:11.526Z,69.70
2017-03-23T19:40:09.791Z,69.80
2017-03-23T19:41:08.112Z,70.10
2017-03-23T19:42:06.357Z,70.00
2017-03-23T19:43:04.589Z,70.00
2017-03-23T19:44:02.952Z,70.00
2017-03-23T19:45:01.230Z,70.00
2017-03-23T19:45:59.474Z,70.60
2017-03-23T19:46:57.706Z,70.00
2017-03-23T19:47:56.698Z,70.00
2017-03-23T19:48:54.945Z,70.00
2017-03-23T19:49:53.933Z,70.70
2017-03-23T19:50:52.218Z,70.10
2017-03-23T19:51:52.093Z,70.20
2017-03-23T19:52:50.346Z,70.20
2017-03-23T19:53:48.614Z,70.30
2017-03-23T19:54:47.576Z,70.30
2017-03-23T19:55:45.825Z,70.40
2017-03-23T19:56:44.100Z,70.50
2017-03-23T19:57:42.338Z,70.50
2017-03-23T19:58:41.338Z,70.50
2017-03-23T19:59:39.612Z,70.60
2017-03-23T20:00:37.921Z,70.70
2017-03-23T20:01:36.185Z,70.80
2017-03-23T20:02:34.497Z,70.90
2017-03-23T20:03:32.762Z,71.00
2017-03-23T20:04:31.056Z,71.10
2017-03-23T20:05:29.340Z,71.10
2017-03-23T20:06:27.637Z,71.20
2017-03-23T20:07:26.676Z,71.30
2017-03-23T20:08:24.932Z,71.30
2017-03-23T20:09:23.170Z,71.30
2017-03-23T20:10:21.425Z,71.50
2017-03-23T20:11:19.683Z,71.50
2017-03-23T20:12:17.948Z,71.60
2017-03-23T20:13:16.235Z,71.70
2017-03-23T20:14:14.592Z,71.70
2017-03-23T20:15:12.856Z,72.10
2017-03-23T20:16:11.112Z,72.10
2017-03-23T20:17:09.365Z,72.10
2017-03-23T20:18:07.645Z,72.20
2017-03-23T20:19:05.997Z,73.20
2017-03-23T20:20:04.422Z,73.30
2017-03-23T20:21:02.668Z,73.40
2017-03-23T20:22:01.011Z,73.40
2017-03-23T20:22:59.261Z,73.50
2017-03-23T20:23:57.585Z,73.70
2017-03-23T20:24:55.901Z,73.80
2017-03-23T20:25:54.124Z,73.80
2017-03-23T20:26:52.349Z,74.00
2017-03-23T20:27:51.374Z,74.00
2017-03-23T20:28:49.630Z,74.00
2017-03-23T20:29:48.580Z,74.00
2017-03-23T20:30:47.637Z,73.90
2017-03-23T20:31:45.952Z,73.90
2017-03-23T20:32:44.958Z,73.90
2017-03-23T20:33:43.214Z,73.90
2017-03-23T20:34:41.972Z,74.10
2017-03-23T20:35:40.197Z,74.40
2017-03-23T20:36:38.445Z,74.60
2017-03-23T20:37:36.758Z,74.70
2017-03-23T20:38:35.014Z,74.50
2017-03-23T20:39:33.277Z,74.60
2017-03-23T20:40:31.593Z,74.40
2017-03-23T20:41:29.856Z,74.30
2017-03-23T20:42:28.092Z,74.30
2017-03-23T20:43:27.064Z,74.30
2017-03-23T20:44:25.353Z,74.40
2017-03-23T20:45:23.873Z,74.50
2017-03-23T20:46:22.097Z,74.50
2017-03-23T20:47:20.386Z,74.40
2017-03-23T20:48:18.614Z,74.50
2017-03-23T20:49:16.853Z,74.50
2017-03-23T20:50:15.120Z,74.70
2017-03-23T20:51:13.429Z,74.60
2017-03-23T20:52:12.009Z,74.10
2017-03-23T20:53:10.346Z,74.80
2017-03-23T20:54:09.441Z,74.70
2017-03-23T20:55:07.741Z,74.70
2017-03-23T20:56:05.984Z,74.60
2017-03-23T20:57:04.377Z,74.60
2017-03-23T20:58:02.631Z,74.40
2017-03-23T20:59:00.909Z,74.30
2017-03-23T20:59:59.198Z,74.20
2017-03-23T21:00:57.441Z,74.20
2017-03-23T21:01:55.905Z,74.20
2017-03-23T21:02:54.230Z,74.20
2017-03-23T21:03:52.497Z,74.20
2017-03-23T21:04:50.818Z,74.10
2017-03-23T21:05:49.056Z,74.20
2017-03-23T21:06:47.405Z,74.30
2017-03-23T21:07:45.698Z,74.90
2017-03-23T21:08:44.127Z,74.30
2017-03-23T21:09:42.462Z,74.30
2017-03-23T21:10:40.689Z,74.20
2017-03-23T21:11:39.682Z,74.30
2017-03-23T21:12:38.654Z,74.30
2017-03-23T21:13:37.665Z,74.30
2017-03-23T21:14:35.949Z,74.20
2017-03-23T21:15:34.193Z,74.30
2017-03-23T21:16:32.441Z,74.30
2017-03-23T21:17:30.667Z,74.30
2017-03-23T21:18:28.911Z,74.30
2017-03-23T21:19:27.446Z,74.30
2017-03-23T21:20:25.725Z,74.50
2017-03-23T21:21:24.018Z,74.80
2017-03-23T21:22:22.303Z,74.80
2017-03-23T21:23:20.637Z,74.80
2017-03-23T21:24:18.946Z,74.90
2017-03-23T21:25:17.881Z,75.10
2017-03-23T21:26:16.161Z,75.10
2017-03-23T21:27:14.452Z,75.10
2017-03-23T21:28:12.685Z,75.00
2017-03-23T21:29:10.994Z,75.00
2017-03-23T21:30:09.361Z,75.00
2017-03-23T21:31:07.593Z,75.00
2017-03-23T21:32:05.861Z,75.10
2017-03-23T21:33:04.157Z,75.70
2017-03-23T21:34:02.405Z,75.70
2017-03-23T21:35:00.719Z,75.10
2017-03-23T21:35:59.013Z,75.20
2017-03-23T21:36:57.327Z,75.30
2017-03-23T21:37:55.594Z,75.30
2017-03-23T21:38:53.858Z,75.30
2017-03-23T21:39:52.134Z,75.30
2017-03-23T21:40:50.397Z,75.50
2017-03-23T21:41:48.637Z,75.50
2017-03-23T21:42:46.922Z,75.50
2017-03-23T21:43:45.222Z,75.60
2017-03-23T21:44:44.219Z,75.60
2017-03-23T21:45:42.476Z,75.70
2017-03-23T21:46:40.721Z,75.60
2017-03-23T21:47:39.052Z,75.50
2017-03-23T21:48:37.311Z,75.80
2017-03-23T21:49:35.566Z,76.00
2017-03-23T21:50:33.880Z,76.00
2017-03-23T21:51:32.149Z,75.90
2017-03-23T21:52:30.386Z,76.00
2017-03-23T21:53:28.651Z,75.80
2017-03-23T21:54:26.876Z,75.90
2017-03-23T21:55:25.194Z,76.30
2017-03-23T21:56:23.441Z,76.30
2017-03-23T21:57:21.723Z,76.40
2017-03-23T21:58:20.695Z,76.70
2017-03-23T21:59:18.926Z,76.60
2017-03-23T22:00:17.322Z,77.70
2017-03-23T22:01:15.614Z,77.10
2017-03-23T22:02:13.865Z,77.10
2017-03-23T22:03:12.170Z,77.10
2017-03-23T22:04:10.409Z,77.10
2017-03-23T22:05:08.846Z,77.00
2017-03-23T22:06:07.135Z,77.70
2017-03-23T22:07:05.422Z,77.10
2017-03-23T22:08:03.697Z,77.00
2017-03-23T22:09:02.310Z,77.10
2017-03-23T22:10:00.559Z,77.00
2017-03-23T22:10:58.834Z,77.10
2017-03-23T22:11:57.082Z,77.10
2017-03-23T22:12:55.338Z,77.20
2017-03-23T22:13:53.598Z,77.10
2017-03-23T22:14:52.585Z,77.80
2017-03-23T22:15:50.833Z,77.10
2017-03-23T22:16:49.057Z,77.30
2017-03-23T22:17:47.345Z,77.30
2017-03-23T22:18:45.616Z,77.40
2017-03-23T22:19:43.882Z,77.40
2017-03-23T22:20:42.152Z,77.40
2017-03-23T22:21:40.399Z,77.40
2017-03-23T22:22:38.634Z,77.50
2017-03-23T22:23:36.846Z,77.40
2017-03-23T22:24:35.166Z,77.40
2017-03-23T22:25:34.681Z,77.50
2017-03-23T22:26:32.917Z,77.40